sensor_id;sensor_type;location;lat;lon;timestamp;P1;durP1;ratioP1;P2;durP2;ratioP2
84135;SDS011;74238;50.566;7.262;2023-12-14T00:00:24;13.02;;;8.15;;
84135;SDS011;74238;50.566;7.262;2023-12-14T00:02:49;13.98;;;8.73;;
84135;SDS011;74238;50.566;7.262;2023-12-14T00:05:14;11.35;;;8.38;;
84135;SDS011;74238;50.566;7.262;2023-12-14T00:07:40;12.82;;;8.70;;
84135;SDS011;74238;50.566;7.262;2023-12-14T00:10:05;12.57;;;8.07;;
84135;SDS011;74238;50.566;7.262;2023-12-14T00:12:31;12.13;;;9.00;;
84135;SDS011;74238;50.566;7.262;2023-12-14T00:14:56;11.70;;;8.95;;
84135;SDS011;74238;50.566;7.262;2023-12-14T00:17:22;16.00;;;9.30;;
84135;SDS011;74238;50.566;7.262;2023-12-14T00:19:47;10.30;;;8.07;;
84135;SDS011;74238;50.566;7.262;2023-12-14T00:22:12;13.77;;;9.10;;
84135;SDS011;74238;50.566;7.262;2023-12-14T00:24:38;12.60;;;7.90;;
84135;SDS011;74238;50.566;7.262;2023-12-14T00:27:03;12.45;;;8.00;;
84135;SDS011;74238;50.566;7.262;2023-12-14T00:29:29;14.15;;;8.35;;
84135;SDS011;74238;50.566;7.262;2023-12-14T00:31:54;10.75;;;7.90;;
84135;SDS011;74238;50.566;7.262;2023-12-14T00:34:19;13.82;;;7.30;;
84135;SDS011;74238;50.566;7.262;2023-12-14T00:36:45;15.55;;;8.73;;
84135;SDS011;74238;50.566;7.262;2023-12-14T00:39:10;14.20;;;8.98;;
84135;SDS011;74238;50.566;7.262;2023-12-14T00:41:35;13.52;;;8.90;;
84135;SDS011;74238;50.566;7.262;2023-12-14T00:44:01;13.57;;;7.88;;
84135;SDS011;74238;50.566;7.262;2023-12-14T00:46:26;17.42;;;8.90;;
84135;SDS011;74238;50.566;7.262;2023-12-14T00:48:52;17.85;;;8.88;;
84135;SDS011;74238;50.566;7.262;2023-12-14T00:51:17;14.63;;;9.52;;
84135;SDS011;74238;50.566;7.262;2023-12-14T00:53:42;15.52;;;9.63;;
84135;SDS011;74238;50.566;7.262;2023-12-14T00:56:08;16.17;;;8.63;;
84135;SDS011;74238;50.566;7.262;2023-12-14T00:58:33;14.57;;;9.07;;
84135;SDS011;74238;50.566;7.262;2023-12-14T01:00:59;15.20;;;9.02;;
84135;SDS011;74238;50.566;7.262;2023-12-14T01:03:24;20.25;;;11.45;;
84135;SDS011;74238;50.566;7.262;2023-12-14T01:05:50;16.80;;;9.20;;
84135;SDS011;74238;50.566;7.262;2023-12-14T01:08:15;14.45;;;9.85;;
84135;SDS011;74238;50.566;7.262;2023-12-14T01:10:40;18.70;;;10.10;;
84135;SDS011;74238;50.566;7.262;2023-12-14T01:13:06;16.50;;;9.43;;
84135;SDS011;74238;50.566;7.262;2023-12-14T01:15:31;13.25;;;9.60;;
84135;SDS011;74238;50.566;7.262;2023-12-14T01:17:56;17.85;;;9.45;;
84135;SDS011;74238;50.566;7.262;2023-12-14T01:20:22;18.92;;;8.73;;
84135;SDS011;74238;50.566;7.262;2023-12-14T01:22:48;14.55;;;8.77;;
84135;SDS011;74238;50.566;7.262;2023-12-14T01:25:13;15.30;;;8.38;;
84135;SDS011;74238;50.566;7.262;2023-12-14T01:27:39;16.25;;;10.05;;
84135;SDS011;74238;50.566;7.262;2023-12-14T01:30:04;19.45;;;10.98;;
84135;SDS011;74238;50.566;7.262;2023-12-14T01:32:30;19.85;;;12.55;;
84135;SDS011;74238;50.566;7.262;2023-12-14T01:34:55;16.77;;;11.27;;
84135;SDS011;74238;50.566;7.262;2023-12-14T01:37:21;19.80;;;12.00;;
84135;SDS011;74238;50.566;7.262;2023-12-14T01:39:46;17.23;;;10.70;;
84135;SDS011;74238;50.566;7.262;2023-12-14T01:42:11;14.18;;;9.88;;
84135;SDS011;74238;50.566;7.262;2023-12-14T01:44:37;15.50;;;10.02;;
84135;SDS011;74238;50.566;7.262;2023-12-14T01:47:02;18.00;;;10.50;;
84135;SDS011;74238;50.566;7.262;2023-12-14T01:49:28;18.17;;;11.63;;
84135;SDS011;74238;50.566;7.262;2023-12-14T01:51:53;17.52;;;10.13;;
84135;SDS011;74238;50.566;7.262;2023-12-14T01:54:18;17.92;;;10.13;;
84135;SDS011;74238;50.566;7.262;2023-12-14T01:56:43;14.35;;;9.82;;
84135;SDS011;74238;50.566;7.262;2023-12-14T01:59:09;15.55;;;8.93;;
84135;SDS011;74238;50.566;7.262;2023-12-14T02:01:37;14.90;;;10.13;;
84135;SDS011;74238;50.566;7.262;2023-12-14T02:04:06;14.02;;;10.18;;
84135;SDS011;74238;50.566;7.262;2023-12-14T02:06:32;15.85;;;7.75;;
84135;SDS011;74238;50.566;7.262;2023-12-14T02:08:58;14.48;;;9.20;;
84135;SDS011;74238;50.566;7.262;2023-12-14T02:11:23;20.30;;;9.10;;
84135;SDS011;74238;50.566;7.262;2023-12-14T02:13:48;17.15;;;10.38;;
84135;SDS011;74238;50.566;7.262;2023-12-14T02:16:13;16.73;;;9.23;;
84135;SDS011;74238;50.566;7.262;2023-12-14T02:18:40;16.35;;;9.13;;
84135;SDS011;74238;50.566;7.262;2023-12-14T02:21:05;12.30;;;8.57;;
84135;SDS011;74238;50.566;7.262;2023-12-14T02:23:31;21.98;;;8.93;;
84135;SDS011;74238;50.566;7.262;2023-12-14T02:25:56;13.07;;;7.93;;
84135;SDS011;74238;50.566;7.262;2023-12-14T02:28:21;15.30;;;9.13;;
84135;SDS011;74238;50.566;7.262;2023-12-14T02:30:47;12.48;;;8.15;;
84135;SDS011;74238;50.566;7.262;2023-12-14T02:33:12;11.02;;;7.68;;
84135;SDS011;74238;50.566;7.262;2023-12-14T02:35:37;11.80;;;7.72;;
84135;SDS011;74238;50.566;7.262;2023-12-14T02:38:03;11.80;;;8.30;;
84135;SDS011;74238;50.566;7.262;2023-12-14T02:40:28;11.13;;;8.13;;
84135;SDS011;74238;50.566;7.262;2023-12-14T02:42:53;12.77;;;7.72;;
84135;SDS011;74238;50.566;7.262;2023-12-14T02:45:19;13.23;;;7.68;;
84135;SDS011;74238;50.566;7.262;2023-12-14T02:47:44;16.00;;;8.13;;
84135;SDS011;74238;50.566;7.262;2023-12-14T02:50:11;14.18;;;8.32;;
84135;SDS011;74238;50.566;7.262;2023-12-14T02:52:37;15.48;;;8.88;;
84135;SDS011;74238;50.566;7.262;2023-12-14T02:55:02;13.38;;;7.78;;
84135;SDS011;74238;50.566;7.262;2023-12-14T02:57:27;13.55;;;8.05;;
84135;SDS011;74238;50.566;7.262;2023-12-14T02:59:53;12.90;;;7.78;;
84135;SDS011;74238;50.566;7.262;2023-12-14T03:02:18;18.42;;;9.55;;
84135;SDS011;74238;50.566;7.262;2023-12-14T03:04:43;14.68;;;7.32;;
84135;SDS011;74238;50.566;7.262;2023-12-14T03:07:09;12.65;;;7.35;;
84135;SDS011;74238;50.566;7.262;2023-12-14T03:09:34;11.30;;;8.15;;
84135;SDS011;74238;50.566;7.262;2023-12-14T03:12:00;10.00;;;7.43;;
84135;SDS011;74238;50.566;7.262;2023-12-14T03:14:25;13.88;;;8.02;;
84135;SDS011;74238;50.566;7.262;2023-12-14T03:16:51;17.73;;;7.97;;
84135;SDS011;74238;50.566;7.262;2023-12-14T03:19:17;14.20;;;8.27;;
84135;SDS011;74238;50.566;7.262;2023-12-14T03:21:43;11.80;;;8.10;;
84135;SDS011;74238;50.566;7.262;2023-12-14T03:24:08;11.02;;;8.32;;
84135;SDS011;74238;50.566;7.262;2023-12-14T03:26:34;12.93;;;7.50;;
84135;SDS011;74238;50.566;7.262;2023-12-14T03:29:00;13.15;;;7.35;;
84135;SDS011;74238;50.566;7.262;2023-12-14T03:31:25;12.55;;;7.88;;
84135;SDS011;74238;50.566;7.262;2023-12-14T03:33:50;10.18;;;7.15;;
84135;SDS011;74238;50.566;7.262;2023-12-14T03:36:16;12.80;;;6.57;;
84135;SDS011;74238;50.566;7.262;2023-12-14T03:38:41;12.95;;;7.10;;
84135;SDS011;74238;50.566;7.262;2023-12-14T03:41:06;14.27;;;8.07;;
84135;SDS011;74238;50.566;7.262;2023-12-14T03:43:32;13.60;;;7.15;;
84135;SDS011;74238;50.566;7.262;2023-12-14T03:45:57;13.23;;;7.35;;
84135;SDS011;74238;50.566;7.262;2023-12-14T03:48:23;13.90;;;7.00;;
84135;SDS011;74238;50.566;7.262;2023-12-14T03:50:48;9.93;;;6.78;;
84135;SDS011;74238;50.566;7.262;2023-12-14T03:53:13;15.00;;;7.57;;
84135;SDS011;74238;50.566;7.262;2023-12-14T03:55:39;9.93;;;6.93;;
84135;SDS011;74238;50.566;7.262;2023-12-14T03:58:04;12.57;;;7.25;;
84135;SDS011;74238;50.566;7.262;2023-12-14T04:00:29;12.73;;;7.45;;
84135;SDS011;74238;50.566;7.262;2023-12-14T04:02:55;11.32;;;7.38;;
84135;SDS011;74238;50.566;7.262;2023-12-14T04:05:20;11.63;;;6.60;;
84135;SDS011;74238;50.566;7.262;2023-12-14T04:07:46;21.05;;;6.97;;
84135;SDS011;74238;50.566;7.262;2023-12-14T04:10:11;14.60;;;7.75;;
84135;SDS011;74238;50.566;7.262;2023-12-14T04:12:38;13.25;;;6.65;;
84135;SDS011;74238;50.566;7.262;2023-12-14T04:15:04;9.65;;;7.50;;
84135;SDS011;74238;50.566;7.262;2023-12-14T04:17:31;15.50;;;7.20;;
84135;SDS011;74238;50.566;7.262;2023-12-14T04:19:56;12.32;;;6.75;;
84135;SDS011;74238;50.566;7.262;2023-12-14T04:22:22;13.32;;;7.35;;
84135;SDS011;74238;50.566;7.262;2023-12-14T04:24:47;12.10;;;6.13;;
84135;SDS011;74238;50.566;7.262;2023-12-14T04:27:13;11.55;;;7.40;;
84135;SDS011;74238;50.566;7.262;2023-12-14T04:29:38;12.05;;;6.50;;
84135;SDS011;74238;50.566;7.262;2023-12-14T04:32:04;9.15;;;6.75;;
84135;SDS011;74238;50.566;7.262;2023-12-14T04:34:30;12.48;;;6.25;;
84135;SDS011;74238;50.566;7.262;2023-12-14T04:36:55;11.80;;;7.65;;
84135;SDS011;74238;50.566;7.262;2023-12-14T04:39:22;13.48;;;7.35;;
84135;SDS011;74238;50.566;7.262;2023-12-14T04:41:49;11.85;;;6.53;;
84135;SDS011;74238;50.566;7.262;2023-12-14T04:44:15;12.52;;;7.80;;
84135;SDS011;74238;50.566;7.262;2023-12-14T04:46:40;9.57;;;5.93;;
84135;SDS011;74238;50.566;7.262;2023-12-14T04:49:05;12.05;;;7.90;;
84135;SDS011;74238;50.566;7.262;2023-12-14T04:51:31;11.93;;;7.28;;
84135;SDS011;74238;50.566;7.262;2023-12-14T04:53:57;11.88;;;6.90;;
84135;SDS011;74238;50.566;7.262;2023-12-14T04:56:22;13.85;;;7.05;;
84135;SDS011;74238;50.566;7.262;2023-12-14T04:58:48;12.18;;;7.22;;
84135;SDS011;74238;50.566;7.262;2023-12-14T05:01:13;14.38;;;7.32;;
84135;SDS011;74238;50.566;7.262;2023-12-14T05:03:38;20.15;;;10.00;;
84135;SDS011;74238;50.566;7.262;2023-12-14T05:06:04;35.95;;;13.80;;
84135;SDS011;74238;50.566;7.262;2023-12-14T05:08:29;38.10;;;14.18;;
84135;SDS011;74238;50.566;7.262;2023-12-14T05:10:54;43.20;;;14.88;;
84135;SDS011;74238;50.566;7.262;2023-12-14T05:13:20;46.25;;;17.85;;
84135;SDS011;74238;50.566;7.262;2023-12-14T05:15:45;50.28;;;19.58;;
84135;SDS011;74238;50.566;7.262;2023-12-14T05:18:10;42.05;;;16.85;;
84135;SDS011;74238;50.566;7.262;2023-12-14T05:20:36;44.03;;;16.67;;
84135;SDS011;74238;50.566;7.262;2023-12-14T05:23:01;46.97;;;16.73;;
84135;SDS011;74238;50.566;7.262;2023-12-14T05:25:26;42.70;;;17.50;;
84135;SDS011;74238;50.566;7.262;2023-12-14T05:27:52;43.85;;;16.77;;
84135;SDS011;74238;50.566;7.262;2023-12-14T05:30:17;36.17;;;14.90;;
84135;SDS011;74238;50.566;7.262;2023-12-14T05:32:43;45.10;;;18.98;;
84135;SDS011;74238;50.566;7.262;2023-12-14T05:35:09;51.15;;;18.48;;
84135;SDS011;74238;50.566;7.262;2023-12-14T05:37:34;41.03;;;17.13;;
84135;SDS011;74238;50.566;7.262;2023-12-14T05:40:00;49.58;;;19.20;;
84135;SDS011;74238;50.566;7.262;2023-12-14T05:42:26;49.97;;;19.38;;
84135;SDS011;74238;50.566;7.262;2023-12-14T05:44:51;51.72;;;19.40;;
84135;SDS011;74238;50.566;7.262;2023-12-14T05:47:17;50.40;;;19.88;;
84135;SDS011;74238;50.566;7.262;2023-12-14T05:49:43;39.53;;;17.48;;
84135;SDS011;74238;50.566;7.262;2023-12-14T05:52:09;44.28;;;18.73;;
84135;SDS011;74238;50.566;7.262;2023-12-14T05:54:38;40.10;;;17.95;;
84135;SDS011;74238;50.566;7.262;2023-12-14T05:57:04;38.28;;;16.92;;
84135;SDS011;74238;50.566;7.262;2023-12-14T05:59:30;43.08;;;18.30;;
84135;SDS011;74238;50.566;7.262;2023-12-14T06:01:56;34.20;;;17.23;;
84135;SDS011;74238;50.566;7.262;2023-12-14T06:04:25;30.92;;;15.43;;
84135;SDS011;74238;50.566;7.262;2023-12-14T06:09:16;22.77;;;10.93;;
84135;SDS011;74238;50.566;7.262;2023-12-14T06:11:44;24.40;;;11.30;;
84135;SDS011;74238;50.566;7.262;2023-12-14T06:14:09;26.80;;;11.50;;
84135;SDS011;74238;50.566;7.262;2023-12-14T06:16:35;27.63;;;15.68;;
84135;SDS011;74238;50.566;7.262;2023-12-14T06:19:00;29.13;;;13.98;;
84135;SDS011;74238;50.566;7.262;2023-12-14T06:21:25;29.45;;;14.07;;
84135;SDS011;74238;50.566;7.262;2023-12-14T06:23:53;28.63;;;13.75;;
84135;SDS011;74238;50.566;7.262;2023-12-14T06:26:19;30.67;;;15.20;;
84135;SDS011;74238;50.566;7.262;2023-12-14T06:28:47;32.25;;;15.50;;
84135;SDS011;74238;50.566;7.262;2023-12-14T06:31:13;31.60;;;15.85;;
84135;SDS011;74238;50.566;7.262;2023-12-14T06:33:49;27.35;;;15.75;;
84135;SDS011;74238;50.566;7.262;2023-12-14T06:36:19;30.58;;;17.13;;
84135;SDS011;74238;50.566;7.262;2023-12-14T06:38:44;33.22;;;15.23;;
84135;SDS011;74238;50.566;7.262;2023-12-14T06:41:22;34.63;;;15.85;;
84135;SDS011;74238;50.566;7.262;2023-12-14T06:43:48;30.45;;;15.25;;
84135;SDS011;74238;50.566;7.262;2023-12-14T06:46:15;36.85;;;17.88;;
84135;SDS011;74238;50.566;7.262;2023-12-14T06:48:41;43.90;;;19.45;;
84135;SDS011;74238;50.566;7.262;2023-12-14T06:51:07;47.17;;;20.33;;
84135;SDS011;74238;50.566;7.262;2023-12-14T06:53:33;57.13;;;23.75;;
84135;SDS011;74238;50.566;7.262;2023-12-14T06:55:59;56.70;;;22.20;;
84135;SDS011;74238;50.566;7.262;2023-12-14T06:58:24;53.50;;;23.88;;
84135;SDS011;74238;50.566;7.262;2023-12-14T07:00:50;56.80;;;22.70;;
84135;SDS011;74238;50.566;7.262;2023-12-14T07:03:15;59.28;;;22.92;;
84135;SDS011;74238;50.566;7.262;2023-12-14T07:05:41;53.13;;;21.83;;
84135;SDS011;74238;50.566;7.262;2023-12-14T07:08:06;61.20;;;23.83;;
84135;SDS011;74238;50.566;7.262;2023-12-14T07:10:31;68.22;;;25.10;;
84135;SDS011;74238;50.566;7.262;2023-12-14T07:12:57;60.80;;;25.50;;
84135;SDS011;74238;50.566;7.262;2023-12-14T07:15:22;63.78;;;23.63;;
84135;SDS011;74238;50.566;7.262;2023-12-14T07:17:48;70.97;;;25.45;;
84135;SDS011;74238;50.566;7.262;2023-12-14T07:20:14;66.50;;;23.83;;
84135;SDS011;74238;50.566;7.262;2023-12-14T07:22:40;69.97;;;26.48;;
84135;SDS011;74238;50.566;7.262;2023-12-14T07:25:05;66.53;;;25.38;;
84135;SDS011;74238;50.566;7.262;2023-12-14T07:27:30;55.95;;;22.58;;
84135;SDS011;74238;50.566;7.262;2023-12-14T07:29:56;62.88;;;24.95;;
84135;SDS011;74238;50.566;7.262;2023-12-14T07:32:21;67.07;;;24.00;;
84135;SDS011;74238;50.566;7.262;2023-12-14T07:34:47;59.20;;;23.45;;
84135;SDS011;74238;50.566;7.262;2023-12-14T07:37:12;60.88;;;22.98;;
84135;SDS011;74238;50.566;7.262;2023-12-14T07:39:38;64.15;;;24.85;;
84135;SDS011;74238;50.566;7.262;2023-12-14T07:42:03;53.42;;;24.30;;
84135;SDS011;74238;50.566;7.262;2023-12-14T07:44:29;56.25;;;24.00;;
84135;SDS011;74238;50.566;7.262;2023-12-14T07:46:55;57.63;;;21.75;;
84135;SDS011;74238;50.566;7.262;2023-12-14T07:49:21;55.63;;;21.88;;
84135;SDS011;74238;50.566;7.262;2023-12-14T07:51:48;55.55;;;24.52;;
84135;SDS011;74238;50.566;7.262;2023-12-14T07:54:13;58.75;;;21.10;;
84135;SDS011;74238;50.566;7.262;2023-12-14T07:56:39;52.15;;;21.52;;
84135;SDS011;74238;50.566;7.262;2023-12-14T07:59:04;51.80;;;20.27;;
84135;SDS011;74238;50.566;7.262;2023-12-14T08:01:32;56.15;;;22.02;;
84135;SDS011;74238;50.566;7.262;2023-12-14T08:03:58;54.00;;;21.48;;
84135;SDS011;74238;50.566;7.262;2023-12-14T08:06:23;50.00;;;20.00;;
84135;SDS011;74238;50.566;7.262;2023-12-14T08:08:48;49.85;;;20.38;;
84135;SDS011;74238;50.566;7.262;2023-12-14T08:11:14;48.35;;;20.77;;
84135;SDS011;74238;50.566;7.262;2023-12-14T08:13:39;52.58;;;19.17;;
84135;SDS011;74238;50.566;7.262;2023-12-14T08:16:05;43.22;;;20.20;;
84135;SDS011;74238;50.566;7.262;2023-12-14T08:18:31;48.60;;;18.02;;
84135;SDS011;74238;50.566;7.262;2023-12-14T08:20:57;43.72;;;15.75;;
84135;SDS011;74238;50.566;7.262;2023-12-14T08:23:22;42.70;;;16.35;;
84135;SDS011;74238;50.566;7.262;2023-12-14T08:25:48;36.30;;;15.57;;
84135;SDS011;74238;50.566;7.262;2023-12-14T08:28:13;37.60;;;14.52;;
84135;SDS011;74238;50.566;7.262;2023-12-14T08:30:39;38.58;;;15.55;;
84135;SDS011;74238;50.566;7.262;2023-12-14T08:33:04;36.08;;;13.82;;
84135;SDS011;74238;50.566;7.262;2023-12-14T08:35:29;39.65;;;16.02;;
84135;SDS011;74238;50.566;7.262;2023-12-14T08:37:55;32.67;;;13.95;;
84135;SDS011;74238;50.566;7.262;2023-12-14T08:40:20;26.88;;;11.90;;
84135;SDS011;74238;50.566;7.262;2023-12-14T08:42:46;29.23;;;11.25;;
84135;SDS011;74238;50.566;7.262;2023-12-14T08:47:37;27.30;;;11.00;;
84135;SDS011;74238;50.566;7.262;2023-12-14T08:50:03;28.90;;;11.02;;
84135;SDS011;74238;50.566;7.262;2023-12-14T08:52:29;32.50;;;11.95;;
84135;SDS011;74238;50.566;7.262;2023-12-14T08:54:54;30.05;;;10.82;;
84135;SDS011;74238;50.566;7.262;2023-12-14T08:57:19;25.17;;;10.13;;
84135;SDS011;74238;50.566;7.262;2023-12-14T08:59:45;28.63;;;11.48;;
84135;SDS011;74238;50.566;7.262;2023-12-14T09:02:10;29.80;;;12.43;;
84135;SDS011;74238;50.566;7.262;2023-12-14T09:04:35;27.20;;;12.07;;
84135;SDS011;74238;50.566;7.262;2023-12-14T09:07:01;27.33;;;10.90;;
84135;SDS011;74238;50.566;7.262;2023-12-14T09:09:26;31.63;;;11.07;;
84135;SDS011;74238;50.566;7.262;2023-12-14T09:11:52;33.22;;;12.13;;
84135;SDS011;74238;50.566;7.262;2023-12-14T09:14:17;27.25;;;11.18;;
84135;SDS011;74238;50.566;7.262;2023-12-14T09:16:42;31.35;;;11.82;;
84135;SDS011;74238;50.566;7.262;2023-12-14T09:19:08;26.27;;;11.38;;
84135;SDS011;74238;50.566;7.262;2023-12-14T09:21:33;29.38;;;11.00;;
84135;SDS011;74238;50.566;7.262;2023-12-14T09:23:58;26.23;;;10.65;;
84135;SDS011;74238;50.566;7.262;2023-12-14T09:26:24;27.13;;;10.77;;
84135;SDS011;74238;50.566;7.262;2023-12-14T09:28:49;24.67;;;9.77;;
84135;SDS011;74238;50.566;7.262;2023-12-14T09:31:14;23.45;;;10.52;;
84135;SDS011;74238;50.566;7.262;2023-12-14T09:33:41;26.15;;;10.68;;
84135;SDS011;74238;50.566;7.262;2023-12-14T09:36:06;20.30;;;8.77;;
84135;SDS011;74238;50.566;7.262;2023-12-14T09:38:31;21.38;;;9.02;;
84135;SDS011;74238;50.566;7.262;2023-12-14T09:40:57;23.33;;;9.70;;
84135;SDS011;74238;50.566;7.262;2023-12-14T09:43:22;19.38;;;8.32;;
84135;SDS011;74238;50.566;7.262;2023-12-14T09:45:48;22.85;;;9.13;;
84135;SDS011;74238;50.566;7.262;2023-12-14T09:48:15;21.88;;;8.20;;
84135;SDS011;74238;50.566;7.262;2023-12-14T09:53:06;22.10;;;8.35;;
84135;SDS011;74238;50.566;7.262;2023-12-14T09:55:32;19.85;;;9.15;;
84135;SDS011;74238;50.566;7.262;2023-12-14T09:57:58;24.10;;;9.50;;
84135;SDS011;74238;50.566;7.262;2023-12-14T10:00:36;24.05;;;9.35;;
84135;SDS011;74238;50.566;7.262;2023-12-14T10:05:48;24.08;;;9.30;;
84135;SDS011;74238;50.566;7.262;2023-12-14T10:08:17;22.45;;;9.40;;
84135;SDS011;74238;50.566;7.262;2023-12-14T10:10:43;22.67;;;10.07;;
84135;SDS011;74238;50.566;7.262;2023-12-14T10:13:13;24.27;;;9.65;;
84135;SDS011;74238;50.566;7.262;2023-12-14T10:15:42;26.88;;;8.95;;
84135;SDS011;74238;50.566;7.262;2023-12-14T10:18:12;20.90;;;9.43;;
84135;SDS011;74238;50.566;7.262;2023-12-14T10:20:42;22.48;;;10.35;;
84135;SDS011;74238;50.566;7.262;2023-12-14T10:23:10;22.15;;;8.30;;
84135;SDS011;74238;50.566;7.262;2023-12-14T10:25:35;17.80;;;7.38;;
84135;SDS011;74238;50.566;7.262;2023-12-14T10:28:00;18.00;;;7.80;;
84135;SDS011;74238;50.566;7.262;2023-12-14T10:30:28;16.65;;;7.35;;
84135;SDS011;74238;50.566;7.262;2023-12-14T10:32:53;20.67;;;7.70;;
84135;SDS011;74238;50.566;7.262;2023-12-14T10:35:19;13.85;;;5.93;;
84135;SDS011;74238;50.566;7.262;2023-12-14T10:37:47;12.10;;;5.20;;
84135;SDS011;74238;50.566;7.262;2023-12-14T10:40:15;13.98;;;5.80;;
84135;SDS011;74238;50.566;7.262;2023-12-14T10:42:44;11.00;;;5.38;;
84135;SDS011;74238;50.566;7.262;2023-12-14T10:45:13;12.18;;;5.90;;
84135;SDS011;74238;50.566;7.262;2023-12-14T10:47:44;14.30;;;5.70;;
84135;SDS011;74238;50.566;7.262;2023-12-14T10:50:10;17.05;;;5.63;;
84135;SDS011;74238;50.566;7.262;2023-12-14T10:52:37;12.98;;;6.38;;
84135;SDS011;74238;50.566;7.262;2023-12-14T10:55:50;12.80;;;5.70;;
84135;SDS011;74238;50.566;7.262;2023-12-14T11:00:17;13.73;;;5.60;;
84135;SDS011;74238;50.566;7.262;2023-12-14T11:02:45;12.45;;;6.35;;
84135;SDS011;74238;50.566;7.262;2023-12-14T11:05:11;12.40;;;5.60;;
84135;SDS011;74238;50.566;7.262;2023-12-14T11:07:47;10.65;;;6.05;;
84135;SDS011;74238;50.566;7.262;2023-12-14T11:10:15;12.15;;;5.30;;
84135;SDS011;74238;50.566;7.262;2023-12-14T11:12:51;11.15;;;5.47;;
84135;SDS011;74238;50.566;7.262;2023-12-14T11:15:27;11.55;;;5.63;;
84135;SDS011;74238;50.566;7.262;2023-12-14T11:23:10;14.48;;;7.20;;
84135;SDS011;74238;50.566;7.262;2023-12-14T11:25:36;13.77;;;6.63;;
84135;SDS011;74238;50.566;7.262;2023-12-14T11:28:08;18.55;;;8.82;;
84135;SDS011;74238;50.566;7.262;2023-12-14T11:30:34;15.32;;;7.20;;
84135;SDS011;74238;50.566;7.262;2023-12-14T11:33:00;16.65;;;6.75;;
84135;SDS011;74238;50.566;7.262;2023-12-14T11:35:25;14.57;;;6.82;;
84135;SDS011;74238;50.566;7.262;2023-12-14T11:37:51;15.43;;;7.22;;
84135;SDS011;74238;50.566;7.262;2023-12-14T11:40:16;14.02;;;6.40;;
84135;SDS011;74238;50.566;7.262;2023-12-14T11:42:57;14.20;;;7.25;;
84135;SDS011;74238;50.566;7.262;2023-12-14T11:45:26;15.25;;;6.95;;
84135;SDS011;74238;50.566;7.262;2023-12-14T11:47:52;17.63;;;8.65;;
84135;SDS011;74238;50.566;7.262;2023-12-14T11:50:18;19.85;;;8.93;;
84135;SDS011;74238;50.566;7.262;2023-12-14T11:52:43;19.60;;;8.40;;
84135;SDS011;74238;50.566;7.262;2023-12-14T11:55:12;16.05;;;7.78;;
84135;SDS011;74238;50.566;7.262;2023-12-14T11:57:37;16.17;;;8.80;;
84135;SDS011;74238;50.566;7.262;2023-12-14T12:00:03;17.38;;;8.23;;
84135;SDS011;74238;50.566;7.262;2023-12-14T12:02:29;20.33;;;8.60;;
84135;SDS011;74238;50.566;7.262;2023-12-14T12:04:55;17.38;;;7.95;;
84135;SDS011;74238;50.566;7.262;2023-12-14T12:07:20;16.52;;;8.10;;
84135;SDS011;74238;50.566;7.262;2023-12-14T12:09:46;20.15;;;8.98;;
84135;SDS011;74238;50.566;7.262;2023-12-14T12:12:12;18.58;;;9.30;;
84135;SDS011;74238;50.566;7.262;2023-12-14T12:14:38;21.75;;;10.23;;
84135;SDS011;74238;50.566;7.262;2023-12-14T12:17:04;22.35;;;10.15;;
84135;SDS011;74238;50.566;7.262;2023-12-14T12:19:31;21.77;;;10.10;;
84135;SDS011;74238;50.566;7.262;2023-12-14T12:22:01;20.67;;;9.63;;
84135;SDS011;74238;50.566;7.262;2023-12-14T12:24:27;25.73;;;10.68;;
84135;SDS011;74238;50.566;7.262;2023-12-14T12:26:52;21.38;;;11.32;;
84135;SDS011;74238;50.566;7.262;2023-12-14T12:29:18;21.65;;;10.55;;
84135;SDS011;74238;50.566;7.262;2023-12-14T12:31:43;23.00;;;10.77;;
84135;SDS011;74238;50.566;7.262;2023-12-14T12:34:10;21.73;;;11.05;;
84135;SDS011;74238;50.566;7.262;2023-12-14T12:36:36;23.15;;;9.77;;
84135;SDS011;74238;50.566;7.262;2023-12-14T12:39:01;22.98;;;10.73;;
84135;SDS011;74238;50.566;7.262;2023-12-14T12:41:28;20.88;;;10.68;;
84135;SDS011;74238;50.566;7.262;2023-12-14T12:43:53;20.30;;;9.50;;
84135;SDS011;74238;50.566;7.262;2023-12-14T12:46:18;19.38;;;10.18;;
84135;SDS011;74238;50.566;7.262;2023-12-14T12:48:44;23.65;;;11.63;;
84135;SDS011;74238;50.566;7.262;2023-12-14T12:51:11;17.67;;;9.85;;
84135;SDS011;74238;50.566;7.262;2023-12-14T12:53:37;17.33;;;10.20;;
84135;SDS011;74238;50.566;7.262;2023-12-14T12:56:02;19.45;;;10.43;;
84135;SDS011;74238;50.566;7.262;2023-12-14T12:58:28;19.85;;;10.48;;
84135;SDS011;74238;50.566;7.262;2023-12-14T13:00:53;20.13;;;10.13;;
84135;SDS011;74238;50.566;7.262;2023-12-14T13:03:19;20.55;;;10.32;;
84135;SDS011;74238;50.566;7.262;2023-12-14T13:05:44;18.38;;;10.43;;
84135;SDS011;74238;50.566;7.262;2023-12-14T13:08:09;23.10;;;10.50;;
84135;SDS011;74238;50.566;7.262;2023-12-14T13:10:35;19.00;;;8.82;;
84135;SDS011;74238;50.566;7.262;2023-12-14T13:13:02;18.88;;;9.38;;
84135;SDS011;74238;50.566;7.262;2023-12-14T13:15:27;19.33;;;10.40;;
84135;SDS011;74238;50.566;7.262;2023-12-14T13:17:54;19.48;;;9.80;;
84135;SDS011;74238;50.566;7.262;2023-12-14T13:20:19;18.17;;;9.35;;
84135;SDS011;74238;50.566;7.262;2023-12-14T13:22:45;18.05;;;9.27;;
84135;SDS011;74238;50.566;7.262;2023-12-14T13:25:10;19.25;;;9.38;;
84135;SDS011;74238;50.566;7.262;2023-12-14T13:27:35;20.50;;;10.07;;
84135;SDS011;74238;50.566;7.262;2023-12-14T13:30:02;18.80;;;9.93;;
84135;SDS011;74238;50.566;7.262;2023-12-14T13:34:53;16.40;;;8.30;;
84135;SDS011;74238;50.566;7.262;2023-12-14T13:37:18;16.42;;;8.80;;
84135;SDS011;74238;50.566;7.262;2023-12-14T13:39:44;17.65;;;9.45;;
84135;SDS011;74238;50.566;7.262;2023-12-14T13:42:09;16.90;;;9.00;;
84135;SDS011;74238;50.566;7.262;2023-12-14T13:44:35;15.77;;;8.65;;
84135;SDS011;74238;50.566;7.262;2023-12-14T13:47:01;16.60;;;8.82;;
84135;SDS011;74238;50.566;7.262;2023-12-14T13:49:28;18.00;;;9.13;;
84135;SDS011;74238;50.566;7.262;2023-12-14T13:51:53;18.90;;;8.57;;
84135;SDS011;74238;50.566;7.262;2023-12-14T13:54:19;16.05;;;9.02;;
84135;SDS011;74238;50.566;7.262;2023-12-14T13:56:44;14.32;;;7.80;;
84135;SDS011;74238;50.566;7.262;2023-12-14T13:59:10;14.30;;;8.98;;
84135;SDS011;74238;50.566;7.262;2023-12-14T14:01:35;15.45;;;8.77;;
84135;SDS011;74238;50.566;7.262;2023-12-14T14:04:01;16.70;;;9.50;;
84135;SDS011;74238;50.566;7.262;2023-12-14T14:06:26;15.00;;;8.70;;
84135;SDS011;74238;50.566;7.262;2023-12-14T14:08:52;19.02;;;9.50;;
84135;SDS011;74238;50.566;7.262;2023-12-14T14:11:17;17.80;;;9.80;;
84135;SDS011;74238;50.566;7.262;2023-12-14T14:13:42;16.38;;;8.25;;
84135;SDS011;74238;50.566;7.262;2023-12-14T14:16:08;17.63;;;8.65;;
84135;SDS011;74238;50.566;7.262;2023-12-14T14:18:33;16.10;;;9.95;;
84135;SDS011;74238;50.566;7.262;2023-12-14T14:20:59;18.10;;;8.50;;
84135;SDS011;74238;50.566;7.262;2023-12-14T14:23:26;19.05;;;9.45;;
84135;SDS011;74238;50.566;7.262;2023-12-14T14:25:51;21.23;;;10.25;;
84135;SDS011;74238;50.566;7.262;2023-12-14T14:28:20;17.23;;;10.00;;
84135;SDS011;74238;50.566;7.262;2023-12-14T14:30:47;19.38;;;9.05;;
84135;SDS011;74238;50.566;7.262;2023-12-14T14:33:13;19.95;;;9.90;;
84135;SDS011;74238;50.566;7.262;2023-12-14T14:35:42;16.80;;;9.20;;
84135;SDS011;74238;50.566;7.262;2023-12-14T14:38:08;15.95;;;8.85;;
84135;SDS011;74238;50.566;7.262;2023-12-14T14:40:34;15.93;;;9.07;;